createdAt,value
2023-01-07T00:01:33.172Z,-0.05
2023-01-07T00:06:39.765Z,-0.06
2023-01-07T00:11:42.786Z,-0.05
2023-01-07T00:16:45.482Z,-0.01
2023-01-07T00:21:48.192Z,0.03
2023-01-07T00:26:50.960Z,0.04
2023-01-07T00:31:53.796Z,0.02
2023-01-07T00:37:16.432Z,0.06
2023-01-07T00:42:37.763Z,0.15
2023-01-07T00:47:40.462Z,0.19
2023-01-07T00:52:43.120Z,0.22
2023-01-07T00:57:45.940Z,0.28
2023-01-07T01:02:50.102Z,0.29
2023-01-07T01:07:52.900Z,0.35
2023-01-07T01:12:55.698Z,0.47
2023-01-07T01:17:58.397Z,0.53
2023-01-07T01:23:01.102Z,0.57
2023-01-07T01:28:04.012Z,0.59
2023-01-07T01:33:06.718Z,0.60
2023-01-07T01:38:09.398Z,0.64
2023-01-07T01:43:38.212Z,0.70
2023-01-07T01:48:47.860Z,0.76
2023-01-07T01:53:52.502Z,0.79
2023-01-07T01:59:01.300Z,0.80
2023-01-07T02:04:10.614Z,0.84
2023-01-07T02:09:14.174Z,0.90
2023-01-07T02:14:29.123Z,0.95
2023-01-07T02:19:40.887Z,1.03
2023-01-07T02:25:17.634Z,1.11
2023-01-07T02:30:32.305Z,1.18
2023-01-07T02:36:15.758Z,1.23
2023-01-07T02:41:46.251Z,1.32
2023-01-07T02:47:22.190Z,1.43
2023-01-07T02:52:27.964Z,1.50
2023-01-07T02:57:52.371Z,1.51
2023-01-07T03:03:10.065Z,1.53
2023-01-07T03:08:18.452Z,1.57
2023-01-07T03:13:26.072Z,1.65
2023-01-07T03:18:43.107Z,1.71
2023-01-07T03:23:51.438Z,1.73
2023-01-07T03:28:55.637Z,1.75
2023-01-07T03:34:12.234Z,1.84
2023-01-07T03:39:16.197Z,1.96
2023-01-07T03:44:18.881Z,2.06
2023-01-07T03:49:21.567Z,2.08
2023-01-07T03:54:24.261Z,2.05
2023-01-07T03:59:26.959Z,2.04
2023-01-07T04:04:29.743Z,2.08
2023-01-07T04:09:32.754Z,2.09
2023-01-07T04:14:35.736Z,2.11
2023-01-07T04:19:39.748Z,2.15
2023-01-07T04:24:42.397Z,2.21
2023-01-07T04:29:45.138Z,2.32
2023-01-07T04:34:47.814Z,2.40
2023-01-07T04:39:50.481Z,2.49
2023-01-07T04:44:53.499Z,2.54
2023-01-07T04:49:56.270Z,2.55
2023-01-07T04:54:59.215Z,2.51
2023-01-07T05:00:01.886Z,2.46
2023-01-07T05:05:05.390Z,2.41
2023-01-07T05:10:08.888Z,2.37
2023-01-07T05:15:12.091Z,2.40
2023-01-07T05:20:15.528Z,2.42
2023-01-07T05:25:18.194Z,2.40
2023-01-07T05:30:20.840Z,2.38
2023-01-07T05:35:23.602Z,2.37
2023-01-07T05:40:26.285Z,2.35
2023-01-07T05:45:28.960Z,2.34
2023-01-07T05:50:31.628Z,2.36
2023-01-07T05:55:36.806Z,2.41
2023-01-07T06:00:39.571Z,2.47
2023-01-07T06:05:42.687Z,2.51
2023-01-07T06:10:45.697Z,2.49
2023-01-07T06:15:48.525Z,2.44
2023-01-07T06:20:51.411Z,2.44
2023-01-07T06:25:54.299Z,2.41
2023-01-07T06:30:57.015Z,2.36
2023-01-07T06:36:00.005Z,2.34
2023-01-07T06:41:03.151Z,2.36
2023-01-07T06:46:05.947Z,2.38
2023-01-07T06:51:08.717Z,2.38
2023-01-07T06:56:11.414Z,2.38
2023-01-07T07:01:14.451Z,2.39
2023-01-07T07:06:17.323Z,2.42
2023-01-07T07:11:20.130Z,2.46
2023-01-07T07:16:24.266Z,2.51
2023-01-07T07:21:27.165Z,2.56
2023-01-07T07:26:29.926Z,2.61
2023-01-07T07:31:32.727Z,2.70
2023-01-07T07:36:35.568Z,2.78
2023-01-07T07:41:38.520Z,2.81
2023-01-07T07:46:42.130Z,2.86
2023-01-07T07:51:45.043Z,2.97
2023-01-07T07:56:47.898Z,3.06
2023-01-07T08:01:51.040Z,3.10
2023-01-07T08:06:54.033Z,3.10
2023-01-07T08:11:56.905Z,3.13
2023-01-07T08:16:59.734Z,3.22
2023-01-07T08:22:02.521Z,3.23
2023-01-07T08:27:05.627Z,3.19
2023-01-07T08:32:08.638Z,3.20
2023-01-07T08:37:11.542Z,3.24
2023-01-07T08:42:14.209Z,3.26
2023-01-07T08:47:17.159Z,3.27
2023-01-07T08:52:21.738Z,3.32
2023-01-07T08:57:24.690Z,3.44
2023-01-07T09:02:27.424Z,3.54
2023-01-07T09:07:30.497Z,3.62
2023-01-07T09:12:33.556Z,3.74
2023-01-07T09:17:36.341Z,3.91
2023-01-07T09:22:39.205Z,4.12
2023-01-07T09:27:42.539Z,4.25
2023-01-07T09:32:45.607Z,4.40
2023-01-07T09:37:48.323Z,4.55
2023-01-07T09:43:07.942Z,4.72
2023-01-07T09:48:23.601Z,4.98
2023-01-07T09:53:34.100Z,5.20
2023-01-07T09:58:38.079Z,5.43
2023-01-07T10:04:02.607Z,5.61
2023-01-07T10:09:27.370Z,5.72
2023-01-07T10:14:48.242Z,5.76
2023-01-07T10:20:04.983Z,5.73
2023-01-07T10:25:15.526Z,5.67
2023-01-07T10:30:21.993Z,5.63
2023-01-07T10:35:27.760Z,5.67
2023-01-07T10:40:30.569Z,5.80
2023-01-07T10:45:48.606Z,5.99
2023-01-07T10:51:04.903Z,6.71
2023-01-07T10:56:36.929Z,7.39
2023-01-07T11:01:44.429Z,7.66
2023-01-07T11:07:00.580Z,8.13
2023-01-07T11:12:35.551Z,9.32
2023-01-07T11:17:47.878Z,9.97
2023-01-07T11:22:50.537Z,9.52
2023-01-07T11:27:53.726Z,8.32
2023-01-07T11:33:07.135Z,7.14
2023-01-07T11:38:33.450Z,6.19
2023-01-07T11:43:40.766Z,5.47
2023-01-07T11:48:57.366Z,4.92
2023-01-07T11:54:00.407Z,4.52
2023-01-07T11:59:17.115Z,4.29
2023-01-07T12:04:29.848Z,4.16
2023-01-07T12:09:35.662Z,4.13
2023-01-07T12:14:39.396Z,4.11
2023-01-07T12:19:51.433Z,4.07
2023-01-07T12:25:06.351Z,3.99
2023-01-07T12:30:54.746Z,3.98
2023-01-07T12:36:05.589Z,3.98
2023-01-07T12:41:19.666Z,3.93
2023-01-07T12:46:25.156Z,3.91
2023-01-07T12:51:41.013Z,3.92
2023-01-07T12:56:54.234Z,3.92
2023-01-07T13:02:30.763Z,3.95
2023-01-07T13:07:33.382Z,4.02
2023-01-07T13:12:43.159Z,4.07
2023-01-07T13:17:48.031Z,4.10
2023-01-07T13:22:56.404Z,4.14
2023-01-07T13:28:25.482Z,4.16
2023-01-07T13:33:41.170Z,4.18
2023-01-07T13:39:21.428Z,4.14
2023-01-07T13:45:01.919Z,4.10
2023-01-07T13:50:05.236Z,4.12
2023-01-07T13:55:36.114Z,4.17
2023-01-07T14:00:45.615Z,4.22
2023-01-07T14:05:48.428Z,4.23
2023-01-07T14:10:53.439Z,4.20
2023-01-07T14:16:20.842Z,4.15
2023-01-07T14:21:44.937Z,4.05
2023-01-07T14:27:16.864Z,3.94
2023-01-07T14:32:38.805Z,3.93
2023-01-07T14:37:47.231Z,3.88
2023-01-07T14:42:50.213Z,3.80
2023-01-07T14:47:53.992Z,3.82
2023-01-07T14:53:18.371Z,3.81
2023-01-07T14:58:39.532Z,3.71
2023-01-07T15:04:08.437Z,3.58
2023-01-07T15:09:35.831Z,3.53
2023-01-07T15:15:21.848Z,3.52
2023-01-07T15:20:39.066Z,3.54
2023-01-07T15:25:47.407Z,3.53
2023-01-07T15:31:00.666Z,3.52
2023-01-07T15:36:08.767Z,3.53
2023-01-07T15:41:38.094Z,3.58
2023-01-07T15:46:41.328Z,3.60
2023-01-07T15:51:48.071Z,3.56
2023-01-07T15:56:54.262Z,3.48
2023-01-07T16:02:04.763Z,3.45
2023-01-07T16:07:23.447Z,3.44
2023-01-07T16:12:31.851Z,3.40
2023-01-07T16:17:35.991Z,3.37
2023-01-07T16:22:40.335Z,3.37
2023-01-07T16:27:43.236Z,3.37
2023-01-07T16:32:46.313Z,3.38
2023-01-07T16:37:49.934Z,3.44
2023-01-07T16:42:52.897Z,3.48
2023-01-07T16:48:15.833Z,3.48
2023-01-07T16:53:22.217Z,3.50
2023-01-07T16:58:27.910Z,3.46
2023-01-07T17:03:43.014Z,3.47
2023-01-07T17:08:52.150Z,3.48
2023-01-07T17:13:54.914Z,3.51
2023-01-07T17:19:20.799Z,3.53
2023-01-07T17:24:43.464Z,3.56
2023-01-07T17:29:46.191Z,3.61
2023-01-07T17:34:48.933Z,3.68
2023-01-07T17:39:51.751Z,3.72
2023-01-07T17:44:54.451Z,3.68
2023-01-07T17:50:01.653Z,3.65
2023-01-07T17:55:05.257Z,3.66
2023-01-07T18:00:21.089Z,3.71
2023-01-07T18:05:26.032Z,3.76
2023-01-07T18:10:49.416Z,3.73
2023-01-07T18:15:52.730Z,3.66
2023-01-07T18:20:56.512Z,3.61
2023-01-07T18:25:59.400Z,3.58
2023-01-07T18:31:02.159Z,3.58
2023-01-07T18:36:05.369Z,3.61
2023-01-07T18:41:08.668Z,3.63
2023-01-07T18:46:11.459Z,3.65
2023-01-07T18:51:14.169Z,3.67
2023-01-07T18:56:19.242Z,3.68
2023-01-07T19:01:22.035Z,3.67
2023-01-07T19:06:24.953Z,3.65
2023-01-07T19:11:27.668Z,3.64
2023-01-07T19:16:30.496Z,3.64
2023-01-07T19:21:33.356Z,3.64
2023-01-07T19:26:36.148Z,3.65
2023-01-07T19:31:39.427Z,3.62
2023-01-07T19:36:46.666Z,3.61
2023-01-07T19:41:50.452Z,3.62
2023-01-07T19:46:53.296Z,3.65
2023-01-07T19:51:56.206Z,3.65
2023-01-07T19:56:58.896Z,3.63
2023-01-07T20:02:03.176Z,3.65
2023-01-07T20:07:05.941Z,3.67
2023-01-07T20:12:09.680Z,3.68
2023-01-07T20:17:12.340Z,3.70
2023-01-07T20:22:15.269Z,3.72
2023-01-07T20:27:17.959Z,3.74
2023-01-07T20:32:20.661Z,3.76
2023-01-07T20:37:27.868Z,3.78
2023-01-07T20:42:32.096Z,3.76
2023-01-07T20:47:34.798Z,3.76
2023-01-07T20:52:37.494Z,3.77
2023-01-07T20:57:41.117Z,3.77
2023-01-07T21:02:43.827Z,3.77
2023-01-07T21:07:53.890Z,3.79
2023-01-07T21:12:56.686Z,3.83
2023-01-07T21:17:59.374Z,3.86
2023-01-07T21:23:02.168Z,3.88
2023-01-07T21:28:06.741Z,3.89
2023-01-07T21:33:09.656Z,3.95
2023-01-07T21:38:14.274Z,3.95
2023-01-07T21:43:16.932Z,3.91
2023-01-07T21:48:19.681Z,3.90
2023-01-07T21:53:22.355Z,3.89
2023-01-07T21:58:25.095Z,3.87
2023-01-07T22:03:29.407Z,3.85
2023-01-07T22:08:32.598Z,3.84
2023-01-07T22:13:35.541Z,3.85
2023-01-07T22:18:38.334Z,3.85
2023-01-07T22:23:44.935Z,3.83
2023-01-07T22:28:52.725Z,3.83
2023-01-07T22:33:55.637Z,3.83
2023-01-07T22:39:03.997Z,3.83
2023-01-07T22:44:13.231Z,3.80
2023-01-07T22:49:17.050Z,3.78
2023-01-07T22:54:19.933Z,3.79
2023-01-07T22:59:22.856Z,3.81
2023-01-07T23:04:25.743Z,3.81
2023-01-07T23:09:28.807Z,3.80
2023-01-07T23:14:32.587Z,3.79
2023-01-07T23:19:35.996Z,3.81
2023-01-07T23:24:38.815Z,3.82
2023-01-07T23:29:42.026Z,3.80
2023-01-07T23:34:44.688Z,3.79
2023-01-07T23:39:47.362Z,3.79
2023-01-07T23:44:50.040Z,3.78
2023-01-07T23:49:52.751Z,3.77
2023-01-07T23:54:55.524Z,3.74
2023-01-07T23:59:58.468Z,3.73
